Airfield :
LOGIN :

Register | Disclaimer

   EN    FR    IT 

 










Legend :    VFR   Marginal VFR   IFR   Intensive IFR   Very Intensive IFR
Visi :
Ceiling :
>= 8 km
>= 3000ft
5 to 8 km
1000 to 3000 ft
1500m to 5 km
500 to 1000 ft
800 to 1500m
200 to 500 ft
< 800m
< 200 ft
Symbols :   Thunderstorms  Fog  Heavy snow  Heavy precipitations  Wind > 20 kt
SIGMETs :     Misc.  Thunderstorms  Icing  Turbulence  Mountain Waves  Volcanic Ashes







- Airport Elevation : 1106 ft
- Download approach charts


LFSO - Nancy / Ochey

CURRENT METAR :
  • 262130Z AUTO 17002KT CAVOK 12/11 Q1022 NOSIG

EXPIRED METARs :
  • 262100Z AUTO 19003KT CAVOK 13/12 Q1022 NOSIG
  • 262030Z AUTO 20003KT CAVOK 13/12 Q1023 NOSIG
  • 262000Z AUTO 22003KT CAVOK 14/12 Q1023 NOSIG
  • 261930Z AUTO 24003KT CAVOK 14/12 Q1023 NOSIG
  • 261900Z AUTO 17003KT CAVOK 15/12 Q1022 NOSIG

TAF TAF LFSO
Valid from the 26 at 21:00 until the 27 at 21:00 UTC


262000Z 2621/2721 VRB02KT CAVOK
BECMG 2701/2703 4000 BR BKN008
BECMG 2708/2710 9999 NSW BKN020
No reported NOTAMs for that airfield.



MET'MAP, your aeronautical weather chart ! - Copyright ORBIFLY December 2007 - Disclaimer

ORBIFLY MET'MAP TEAM :

Programming & Development : Alexandra Zaïnal
Concept & Development : Baudouin d'Aumeries
Co-Development & Prog : Marc-Olivier Méhu
Technical & hardware support : Manuel Goepfert

Contact : metmap@orbifly.com




SOURCES & CREDITS :

   NOAA